GCLP Airport Information

Runway Information
Runway 03L Length 10171 ft width 148 ft
Elevation 78 ft Threshold 0 ft Heading 22
Runway 21R Length 10171 ft Width 148 ft
Elevation 33 ft Threshold 0 ft Heading 202
Runway 03R Length 10171 ft width 148 ft
Elevation 69 ft Threshold 0 ft Heading 22
Runway 21L Length 10171 ft Width 148 ft
Elevation 27 ft Threshold 0 ft Heading 202
Airport Frequencies
Type APP Name APP Frequency 120.9 MHZ
Type ATIS Name ATIS Frequency 118.6 MHZ
Type GND Name GND Frequency 121.7 MHZ
Type TWR Name TWR Frequency 118.3 MHZ
Airport Navaids
Type VOR-DME Name Gran Canaria Frequency 112900 KHZ
Type VOR-DME Name Gran Canaria Frequency 115000 KHZ
Type TACAN Name Gran Canaria Frequency 115600 KHZ
Type NDB Name Gran Canaria Frequency 365 KHZ
Airport Weather Information & NOTAM
ADDS - METARS form results

(0852 UTC 19 September 2018)
Data provider http://aviationweather.gov/metar/data/
 
METAR text: GCLP 190830Z 02012KT 350V050 9999 FEW020 24/19 Q1018 NOSIG
Conditions at: GCLP (LAS PALMAS/GANDO, ES) observed 0830 UTC 19 September 2018
Temperature: 24.0°C (75°F)
Dewpoint: 19.0°C (66°F) [RH = 74%]
Pressure (altimeter): 30.06 inches Hg (1018.0 mb)
Winds: from the NNE (20 degrees) at 14 MPH (12 knots; 6.2 m/s)
Visibility: 6 or more miles (10+ km)
Ceiling: at least 12,000 feet AGL
Clouds: few clouds at 2000 feet AGL
Weather: no significant weather observed at this time

METAR text: GCLP 190800Z 02011KT 9999 FEW015 23/20 Q1017 NOSIG
Conditions at: GCLP (LAS PALMAS/GANDO, ES) observed 0800 UTC 19 September 2018
Temperature: 23.0°C (73°F)
Dewpoint: 20.0°C (68°F) [RH = 83%]
Pressure (altimeter): 30.03 inches Hg (1017.0 mb)
Winds: from the NNE (20 degrees) at 13 MPH (11 knots; 5.7 m/s)
Visibility: 6 or more miles (10+ km)
Ceiling: at least 12,000 feet AGL
Clouds: few clouds at 1500 feet AGL
Weather: no significant weather observed at this time

Forecast for: GCLP (LAS PALMAS/GANDO, ES)
Text: TAF GCLP 190800Z 1909/2009 02015KT 9999 FEW025 TX29/1914Z TN24/2005Z
Forecast period: 0900 UTC 19 September 2018 to 0900 UTC 20 September 2018
Forecast type: FROM: standard forecast or significant change
Winds: from the NNE (20 degrees) at 17 MPH (15 knots; 7.7 m/s)
Visibility: 6 or more miles 10+ km)
Ceiling: at least 12,000 feet AGL
Clouds: few clouds at 2500 feet AGL
Weather: no significant weather forecast for this period